sensor_id;sensor_type;location;lat;lon;timestamp;temperature;humidity
71128;SHT30;59249;59.736;30.568;2022-07-09T00:01:02;17.93;76.42
71128;SHT30;59249;59.736;30.568;2022-07-09T00:03:31;17.86;76.88
71128;SHT30;59249;59.736;30.568;2022-07-09T00:05:59;17.83;76.97
71128;SHT30;59249;59.736;30.568;2022-07-09T00:08:30;17.74;77.38
71128;SHT30;59249;59.736;30.568;2022-07-09T00:11:00;17.74;77.31
71128;SHT30;59249;59.736;30.568;2022-07-09T00:13:29;17.67;77.54
71128;SHT30;59249;59.736;30.568;2022-07-09T00:15:57;17.65;77.65
71128;SHT30;59249;59.736;30.568;2022-07-09T00:18:26;17.55;77.58
71128;SHT30;59249;59.736;30.568;2022-07-09T00:20:55;17.51;77.73
71128;SHT30;59249;59.736;30.568;2022-07-09T00:23:23;17.52;77.64
71128;SHT30;59249;59.736;30.568;2022-07-09T00:25:53;17.40;77.88
71128;SHT30;59249;59.736;30.568;2022-07-09T00:28:22;17.36;78.26
71128;SHT30;59249;59.736;30.568;2022-07-09T00:30:51;17.35;78.39
71128;SHT30;59249;59.736;30.568;2022-07-09T00:33:20;17.36;77.94
71128;SHT30;59249;59.736;30.568;2022-07-09T00:35:48;17.25;78.41
71128;SHT30;59249;59.736;30.568;2022-07-09T00:38:16;17.11;79.12
71128;SHT30;59249;59.736;30.568;2022-07-09T00:40:45;17.15;78.65
71128;SHT30;59249;59.736;30.568;2022-07-09T00:43:18;17.09;78.57
71128;SHT30;59249;59.736;30.568;2022-07-09T00:45:48;17.01;78.80
71128;SHT30;59249;59.736;30.568;2022-07-09T00:48:17;16.99;79.19
71128;SHT30;59249;59.736;30.568;2022-07-09T00:50:47;17.08;79.16
71128;SHT30;59249;59.736;30.568;2022-07-09T00:53:17;17.08;79.24
71128;SHT30;59249;59.736;30.568;2022-07-09T00:55:47;17.07;78.77
71128;SHT30;59249;59.736;30.568;2022-07-09T00:58:18;17.02;78.91
71128;SHT30;59249;59.736;30.568;2022-07-09T01:00:49;16.98;79.29
71128;SHT30;59249;59.736;30.568;2022-07-09T01:03:17;16.95;79.08
71128;SHT30;59249;59.736;30.568;2022-07-09T01:05:46;16.92;78.95
71128;SHT30;59249;59.736;30.568;2022-07-09T01:08:15;16.76;79.72
71128;SHT30;59249;59.736;30.568;2022-07-09T01:10:44;16.79;79.54
71128;SHT30;59249;59.736;30.568;2022-07-09T01:13:13;16.70;79.51
71128;SHT30;59249;59.736;30.568;2022-07-09T01:15:42;16.62;79.71
71128;SHT30;59249;59.736;30.568;2022-07-09T01:18:12;16.69;79.99
71128;SHT30;59249;59.736;30.568;2022-07-09T01:20:42;16.61;80.30
71128;SHT30;59249;59.736;30.568;2022-07-09T01:23:11;16.88;80.05
71128;SHT30;59249;59.736;30.568;2022-07-09T01:25:40;16.86;79.06
71128;SHT30;59249;59.736;30.568;2022-07-09T01:28:09;16.67;79.43
71128;SHT30;59249;59.736;30.568;2022-07-09T01:30:40;16.56;79.75
71128;SHT30;59249;59.736;30.568;2022-07-09T01:33:09;16.50;79.85
71128;SHT30;59249;59.736;30.568;2022-07-09T01:35:37;16.41;79.99
71128;SHT30;59249;59.736;30.568;2022-07-09T01:38:07;16.38;80.38
71128;SHT30;59249;59.736;30.568;2022-07-09T01:40:35;16.36;80.45
71128;SHT30;59249;59.736;30.568;2022-07-09T01:43:04;16.39;80.45
71128;SHT30;59249;59.736;30.568;2022-07-09T01:45:33;16.38;80.64
71128;SHT30;59249;59.736;30.568;2022-07-09T01:48:02;16.30;80.19
71128;SHT30;59249;59.736;30.568;2022-07-09T01:50:31;16.30;80.45
71128;SHT30;59249;59.736;30.568;2022-07-09T01:53:00;16.26;80.49
71128;SHT30;59249;59.736;30.568;2022-07-09T01:55:30;16.25;80.64
71128;SHT30;59249;59.736;30.568;2022-07-09T01:57:58;16.22;81.10
71128;SHT30;59249;59.736;30.568;2022-07-09T02:00:27;16.23;80.91
71128;SHT30;59249;59.736;30.568;2022-07-09T02:02:56;16.23;81.11
71128;SHT30;59249;59.736;30.568;2022-07-09T02:05:25;16.25;80.65
71128;SHT30;59249;59.736;30.568;2022-07-09T02:07:53;16.30;80.90
71128;SHT30;59249;59.736;30.568;2022-07-09T02:10:22;16.33;80.72
71128;SHT30;59249;59.736;30.568;2022-07-09T02:12:52;16.41;80.44
71128;SHT30;59249;59.736;30.568;2022-07-09T02:15:20;16.44;80.30
71128;SHT30;59249;59.736;30.568;2022-07-09T02:17:50;16.56;80.01
71128;SHT30;59249;59.736;30.568;2022-07-09T02:20:19;16.94;79.49
71128;SHT30;59249;59.736;30.568;2022-07-09T02:22:48;17.32;78.91
71128;SHT30;59249;59.736;30.568;2022-07-09T02:25:16;17.76;77.18
71128;SHT30;59249;59.736;30.568;2022-07-09T02:27:45;17.95;77.03
71128;SHT30;59249;59.736;30.568;2022-07-09T02:30:15;18.33;76.04
71128;SHT30;59249;59.736;30.568;2022-07-09T02:32:43;18.46;75.60
71128;SHT30;59249;59.736;30.568;2022-07-09T02:35:12;18.29;75.19
71128;SHT30;59249;59.736;30.568;2022-07-09T02:37:40;18.07;75.70
71128;SHT30;59249;59.736;30.568;2022-07-09T02:40:10;17.83;76.18
71128;SHT30;59249;59.736;30.568;2022-07-09T02:42:41;17.73;76.92
71128;SHT30;59249;59.736;30.568;2022-07-09T02:45:10;17.61;77.15
71128;SHT30;59249;59.736;30.568;2022-07-09T02:47:40;17.55;77.32
71128;SHT30;59249;59.736;30.568;2022-07-09T02:50:09;17.46;77.44
71128;SHT30;59249;59.736;30.568;2022-07-09T02:52:37;17.39;77.59
71128;SHT30;59249;59.736;30.568;2022-07-09T02:55:06;17.89;76.54
71128;SHT30;59249;59.736;30.568;2022-07-09T02:57:36;18.18;75.54
71128;SHT30;59249;59.736;30.568;2022-07-09T03:00:06;18.66;74.65
71128;SHT30;59249;59.736;30.568;2022-07-09T03:02:35;19.19;72.85
71128;SHT30;59249;59.736;30.568;2022-07-09T03:05:06;19.48;71.98
71128;SHT30;59249;59.736;30.568;2022-07-09T03:07:34;19.84;71.12
71128;SHT30;59249;59.736;30.568;2022-07-09T03:10:05;20.12;70.11
71128;SHT30;59249;59.736;30.568;2022-07-09T03:12:34;20.34;69.83
71128;SHT30;59249;59.736;30.568;2022-07-09T03:15:03;20.51;68.28
71128;SHT30;59249;59.736;30.568;2022-07-09T03:17:32;20.61;68.09
71128;SHT30;59249;59.736;30.568;2022-07-09T03:20:00;20.74;67.76
71128;SHT30;59249;59.736;30.568;2022-07-09T03:22:30;21.06;67.25
71128;SHT30;59249;59.736;30.568;2022-07-09T03:24:59;21.24;66.66
71128;SHT30;59249;59.736;30.568;2022-07-09T03:27:30;21.07;67.37
71128;SHT30;59249;59.736;30.568;2022-07-09T03:29:59;21.45;66.44
71128;SHT30;59249;59.736;30.568;2022-07-09T03:32:30;21.50;65.67
71128;SHT30;59249;59.736;30.568;2022-07-09T03:34:59;21.47;66.61
71128;SHT30;59249;59.736;30.568;2022-07-09T03:37:30;21.28;67.10
71128;SHT30;59249;59.736;30.568;2022-07-09T03:39:59;20.96;67.77
71128;SHT30;59249;59.736;30.568;2022-07-09T03:42:29;20.87;68.18
71128;SHT30;59249;59.736;30.568;2022-07-09T03:44:57;20.71;68.57
71128;SHT30;59249;59.736;30.568;2022-07-09T03:47:26;20.56;68.96
71128;SHT30;59249;59.736;30.568;2022-07-09T03:49:55;20.35;69.81
71128;SHT30;59249;59.736;30.568;2022-07-09T03:52:23;20.27;70.22
71128;SHT30;59249;59.736;30.568;2022-07-09T03:54:53;20.26;70.54
71128;SHT30;59249;59.736;30.568;2022-07-09T03:57:22;20.16;70.68
71128;SHT30;59249;59.736;30.568;2022-07-09T03:59:50;20.03;71.20
71128;SHT30;59249;59.736;30.568;2022-07-09T04:02:19;20.10;71.47
71128;SHT30;59249;59.736;30.568;2022-07-09T04:04:48;19.98;71.80
71128;SHT30;59249;59.736;30.568;2022-07-09T04:07:17;19.96;71.93
71128;SHT30;59249;59.736;30.568;2022-07-09T04:09:45;19.98;71.96
71128;SHT30;59249;59.736;30.568;2022-07-09T04:12:15;19.94;71.95
71128;SHT30;59249;59.736;30.568;2022-07-09T04:14:44;19.90;72.09
71128;SHT30;59249;59.736;30.568;2022-07-09T04:17:13;20.01;72.08
71128;SHT30;59249;59.736;30.568;2022-07-09T04:19:41;20.11;71.82
71128;SHT30;59249;59.736;30.568;2022-07-09T04:22:10;20.24;71.41
71128;SHT30;59249;59.736;30.568;2022-07-09T04:24:38;20.38;71.05
71128;SHT30;59249;59.736;30.568;2022-07-09T04:27:07;20.44;70.69
71128;SHT30;59249;59.736;30.568;2022-07-09T04:29:37;20.52;70.08
71128;SHT30;59249;59.736;30.568;2022-07-09T04:32:06;20.52;69.79
71128;SHT30;59249;59.736;30.568;2022-07-09T04:34:35;20.49;70.19
71128;SHT30;59249;59.736;30.568;2022-07-09T04:37:04;20.43;70.27
71128;SHT30;59249;59.736;30.568;2022-07-09T04:39:33;20.43;70.32
71128;SHT30;59249;59.736;30.568;2022-07-09T04:42:01;20.54;69.65
71128;SHT30;59249;59.736;30.568;2022-07-09T04:44:30;20.57;69.31
71128;SHT30;59249;59.736;30.568;2022-07-09T04:47:00;20.56;69.38
71128;SHT30;59249;59.736;30.568;2022-07-09T04:49:28;20.63;68.75
71128;SHT30;59249;59.736;30.568;2022-07-09T04:52:04;20.67;68.89
71128;SHT30;59249;59.736;30.568;2022-07-09T04:54:33;20.84;68.62
71128;SHT30;59249;59.736;30.568;2022-07-09T04:57:01;20.99;68.29
71128;SHT30;59249;59.736;30.568;2022-07-09T04:59:30;21.08;67.93
71128;SHT30;59249;59.736;30.568;2022-07-09T05:02:00;21.00;67.49
71128;SHT30;59249;59.736;30.568;2022-07-09T05:04:28;21.06;67.46
71128;SHT30;59249;59.736;30.568;2022-07-09T05:06:57;21.04;67.40
71128;SHT30;59249;59.736;30.568;2022-07-09T05:09:25;21.11;67.40
71128;SHT30;59249;59.736;30.568;2022-07-09T05:11:54;21.06;67.47
71128;SHT30;59249;59.736;30.568;2022-07-09T05:14:22;21.14;67.52
71128;SHT30;59249;59.736;30.568;2022-07-09T05:16:51;21.21;67.53
71128;SHT30;59249;59.736;30.568;2022-07-09T05:19:21;21.26;67.20
71128;SHT30;59249;59.736;30.568;2022-07-09T05:21:49;21.27;66.56
71128;SHT30;59249;59.736;30.568;2022-07-09T05:24:18;21.39;66.31
71128;SHT30;59249;59.736;30.568;2022-07-09T05:26:46;21.38;65.60
71128;SHT30;59249;59.736;30.568;2022-07-09T05:29:15;21.44;66.06
71128;SHT30;59249;59.736;30.568;2022-07-09T05:31:46;21.59;65.70
71128;SHT30;59249;59.736;30.568;2022-07-09T05:34:15;21.64;65.35
71128;SHT30;59249;59.736;30.568;2022-07-09T05:36:45;21.65;64.72
71128;SHT30;59249;59.736;30.568;2022-07-09T05:39:14;21.65;64.82
71128;SHT30;59249;59.736;30.568;2022-07-09T05:41:42;21.79;65.06
71128;SHT30;59249;59.736;30.568;2022-07-09T05:44:11;21.94;64.32
71128;SHT30;59249;59.736;30.568;2022-07-09T05:46:42;21.99;63.95
71128;SHT30;59249;59.736;30.568;2022-07-09T05:49:10;22.02;63.07
71128;SHT30;59249;59.736;30.568;2022-07-09T05:51:39;21.94;62.29
71128;SHT30;59249;59.736;30.568;2022-07-09T05:54:09;21.85;62.23
71128;SHT30;59249;59.736;30.568;2022-07-09T05:56:37;21.90;62.14
71128;SHT30;59249;59.736;30.568;2022-07-09T05:59:06;21.92;62.21
71128;SHT30;59249;59.736;30.568;2022-07-09T06:01:35;21.92;62.32
71128;SHT30;59249;59.736;30.568;2022-07-09T06:04:07;22.04;61.34
71128;SHT30;59249;59.736;30.568;2022-07-09T06:06:35;22.01;61.54
71128;SHT30;59249;59.736;30.568;2022-07-09T06:09:04;22.09;61.33
71128;SHT30;59249;59.736;30.568;2022-07-09T06:11:34;22.18;61.40
71128;SHT30;59249;59.736;30.568;2022-07-09T06:14:03;22.16;61.01
71128;SHT30;59249;59.736;30.568;2022-07-09T06:16:31;22.17;60.91
71128;SHT30;59249;59.736;30.568;2022-07-09T06:19:00;22.28;60.36
71128;SHT30;59249;59.736;30.568;2022-07-09T06:21:29;22.27;59.65
71128;SHT30;59249;59.736;30.568;2022-07-09T06:23:58;22.38;59.91
71128;SHT30;59249;59.736;30.568;2022-07-09T06:26:26;22.34;59.89
71128;SHT30;59249;59.736;30.568;2022-07-09T06:28:56;22.35;59.17
71128;SHT30;59249;59.736;30.568;2022-07-09T06:31:25;22.43;58.43
71128;SHT30;59249;59.736;30.568;2022-07-09T06:33:54;22.45;58.24
71128;SHT30;59249;59.736;30.568;2022-07-09T06:36:26;22.58;58.24
71128;SHT30;59249;59.736;30.568;2022-07-09T06:38:55;22.71;58.36
71128;SHT30;59249;59.736;30.568;2022-07-09T06:41:41;22.72;57.86
71128;SHT30;59249;59.736;30.568;2022-07-09T06:44:11;22.64;57.06
71128;SHT30;59249;59.736;30.568;2022-07-09T06:46:39;22.75;57.65
71128;SHT30;59249;59.736;30.568;2022-07-09T06:49:08;22.69;57.53
71128;SHT30;59249;59.736;30.568;2022-07-09T06:51:37;22.64;57.15
71128;SHT30;59249;59.736;30.568;2022-07-09T06:54:05;22.76;57.84
71128;SHT30;59249;59.736;30.568;2022-07-09T06:56:34;22.83;57.04
71128;SHT30;59249;59.736;30.568;2022-07-09T06:59:02;22.85;56.40
71128;SHT30;59249;59.736;30.568;2022-07-09T07:01:32;22.98;56.83
71128;SHT30;59249;59.736;30.568;2022-07-09T07:04:01;23.19;56.62
71128;SHT30;59249;59.736;30.568;2022-07-09T07:06:29;23.20;55.92
71128;SHT30;59249;59.736;30.568;2022-07-09T07:08:58;23.38;55.74
71128;SHT30;59249;59.736;30.568;2022-07-09T07:11:27;23.52;55.59
71128;SHT30;59249;59.736;30.568;2022-07-09T07:13:55;23.55;55.41
71128;SHT30;59249;59.736;30.568;2022-07-09T07:16:24;23.47;55.02
71128;SHT30;59249;59.736;30.568;2022-07-09T07:18:53;23.54;54.83
71128;SHT30;59249;59.736;30.568;2022-07-09T07:21:22;23.82;54.34
71128;SHT30;59249;59.736;30.568;2022-07-09T07:23:51;23.85;53.42
71128;SHT30;59249;59.736;30.568;2022-07-09T07:26:19;24.06;52.38
71128;SHT30;59249;59.736;30.568;2022-07-09T07:28:48;24.28;52.73
71128;SHT30;59249;59.736;30.568;2022-07-09T07:31:17;24.20;52.93
71128;SHT30;59249;59.736;30.568;2022-07-09T07:33:46;24.15;53.09
71128;SHT30;59249;59.736;30.568;2022-07-09T07:36:16;24.17;53.09
71128;SHT30;59249;59.736;30.568;2022-07-09T07:38:44;24.00;53.34
71128;SHT30;59249;59.736;30.568;2022-07-09T07:41:13;24.03;53.52
71128;SHT30;59249;59.736;30.568;2022-07-09T07:43:44;23.88;53.40
71128;SHT30;59249;59.736;30.568;2022-07-09T07:46:12;24.01;53.16
71128;SHT30;59249;59.736;30.568;2022-07-09T07:48:41;23.96;53.67
71128;SHT30;59249;59.736;30.568;2022-07-09T07:51:10;23.99;53.18
71128;SHT30;59249;59.736;30.568;2022-07-09T07:53:40;23.88;53.22
71128;SHT30;59249;59.736;30.568;2022-07-09T07:56:08;23.73;52.77
71128;SHT30;59249;59.736;30.568;2022-07-09T07:58:37;23.73;53.19
71128;SHT30;59249;59.736;30.568;2022-07-09T08:01:05;23.80;53.31
71128;SHT30;59249;59.736;30.568;2022-07-09T08:03:34;23.94;53.36
71128;SHT30;59249;59.736;30.568;2022-07-09T08:06:03;23.91;53.28
71128;SHT30;59249;59.736;30.568;2022-07-09T08:08:34;23.87;53.28
71128;SHT30;59249;59.736;30.568;2022-07-09T08:11:05;24.06;53.08
71128;SHT30;59249;59.736;30.568;2022-07-09T08:13:34;24.29;53.08
71128;SHT30;59249;59.736;30.568;2022-07-09T08:16:03;24.39;52.67
71128;SHT30;59249;59.736;30.568;2022-07-09T08:18:31;24.52;52.21
71128;SHT30;59249;59.736;30.568;2022-07-09T08:21:00;24.60;51.48
71128;SHT30;59249;59.736;30.568;2022-07-09T08:23:29;24.39;50.89
71128;SHT30;59249;59.736;30.568;2022-07-09T08:25:58;24.11;51.34
71128;SHT30;59249;59.736;30.568;2022-07-09T08:28:28;24.10;51.69
71128;SHT30;59249;59.736;30.568;2022-07-09T08:30:56;24.02;51.71
71128;SHT30;59249;59.736;30.568;2022-07-09T08:33:27;24.03;52.00
71128;SHT30;59249;59.736;30.568;2022-07-09T08:35:55;23.96;51.91
71128;SHT30;59249;59.736;30.568;2022-07-09T08:38:24;24.11;51.84
71128;SHT30;59249;59.736;30.568;2022-07-09T08:40:53;24.29;51.14
71128;SHT30;59249;59.736;30.568;2022-07-09T08:43:22;24.30;51.04
71128;SHT30;59249;59.736;30.568;2022-07-09T08:45:53;24.16;50.65
71128;SHT30;59249;59.736;30.568;2022-07-09T08:48:23;24.04;51.11
71128;SHT30;59249;59.736;30.568;2022-07-09T08:50:51;24.25;51.06
71128;SHT30;59249;59.736;30.568;2022-07-09T08:53:20;24.19;50.64
71128;SHT30;59249;59.736;30.568;2022-07-09T08:55:50;24.21;50.08
71128;SHT30;59249;59.736;30.568;2022-07-09T08:58:19;24.08;50.48
71128;SHT30;59249;59.736;30.568;2022-07-09T09:00:49;24.23;50.73
71128;SHT30;59249;59.736;30.568;2022-07-09T09:03:19;24.50;50.38
71128;SHT30;59249;59.736;30.568;2022-07-09T09:06:00;24.58;49.69
71128;SHT30;59249;59.736;30.568;2022-07-09T09:08:33;24.87;49.83
71128;SHT30;59249;59.736;30.568;2022-07-09T09:11:04;24.95;49.29
71128;SHT30;59249;59.736;30.568;2022-07-09T09:13:37;24.82;49.25
71128;SHT30;59249;59.736;30.568;2022-07-09T09:16:08;24.86;49.63
71128;SHT30;59249;59.736;30.568;2022-07-09T09:18:42;24.86;49.24
71128;SHT30;59249;59.736;30.568;2022-07-09T09:21:13;24.69;47.77
71128;SHT30;59249;59.736;30.568;2022-07-09T09:23:42;24.71;48.29
71128;SHT30;59249;59.736;30.568;2022-07-09T09:26:14;24.69;48.26
71128;SHT30;59249;59.736;30.568;2022-07-09T09:28:47;24.76;48.59
71128;SHT30;59249;59.736;30.568;2022-07-09T09:31:21;24.86;48.76
71128;SHT30;59249;59.736;30.568;2022-07-09T09:33:52;24.78;49.10
71128;SHT30;59249;59.736;30.568;2022-07-09T09:36:32;24.72;49.24
71128;SHT30;59249;59.736;30.568;2022-07-09T09:39:16;24.70;49.80
71128;SHT30;59249;59.736;30.568;2022-07-09T09:41:46;24.85;49.81
71128;SHT30;59249;59.736;30.568;2022-07-09T09:44:16;24.91;49.46
71128;SHT30;59249;59.736;30.568;2022-07-09T09:46:48;25.12;49.56
71128;SHT30;59249;59.736;30.568;2022-07-09T09:49:18;25.48;48.72
71128;SHT30;59249;59.736;30.568;2022-07-09T09:51:49;25.88;48.17
71128;SHT30;59249;59.736;30.568;2022-07-09T09:54:20;25.76;48.05
71128;SHT30;59249;59.736;30.568;2022-07-09T09:56:49;25.92;48.14
71128;SHT30;59249;59.736;30.568;2022-07-09T09:59:18;26.02;47.39
71128;SHT30;59249;59.736;30.568;2022-07-09T10:01:46;25.91;47.37
71128;SHT30;59249;59.736;30.568;2022-07-09T10:04:15;25.89;47.68
71128;SHT30;59249;59.736;30.568;2022-07-09T10:06:45;26.02;47.26
71128;SHT30;59249;59.736;30.568;2022-07-09T10:09:14;26.07;46.87
71128;SHT30;59249;59.736;30.568;2022-07-09T10:11:44;26.09;46.47
71128;SHT30;59249;59.736;30.568;2022-07-09T10:14:17;26.30;47.01
71128;SHT30;59249;59.736;30.568;2022-07-09T10:16:46;26.69;46.26
71128;SHT30;59249;59.736;30.568;2022-07-09T10:19:24;26.73;46.03
71128;SHT30;59249;59.736;30.568;2022-07-09T10:21:56;26.83;45.84
71128;SHT30;59249;59.736;30.568;2022-07-09T10:24:25;26.83;45.28
71128;SHT30;59249;59.736;30.568;2022-07-09T10:27:03;27.18;45.40
71128;SHT30;59249;59.736;30.568;2022-07-09T10:29:33;26.93;44.80
71128;SHT30;59249;59.736;30.568;2022-07-09T10:32:02;27.22;45.23
71128;SHT30;59249;59.736;30.568;2022-07-09T10:34:41;27.15;45.24
71128;SHT30;59249;59.736;30.568;2022-07-09T10:37:13;26.84;45.40
71128;SHT30;59249;59.736;30.568;2022-07-09T10:39:52;26.80;45.28
71128;SHT30;59249;59.736;30.568;2022-07-09T10:42:22;26.73;44.96
71128;SHT30;59249;59.736;30.568;2022-07-09T10:44:51;26.43;45.25
71128;SHT30;59249;59.736;30.568;2022-07-09T10:47:20;26.09;45.66
71128;SHT30;59249;59.736;30.568;2022-07-09T10:49:49;25.85;46.51
71128;SHT30;59249;59.736;30.568;2022-07-09T10:52:19;25.49;47.80
71128;SHT30;59249;59.736;30.568;2022-07-09T10:54:48;25.21;49.12
71128;SHT30;59249;59.736;30.568;2022-07-09T10:57:17;25.23;49.63
71128;SHT30;59249;59.736;30.568;2022-07-09T10:59:46;25.31;49.86
71128;SHT30;59249;59.736;30.568;2022-07-09T11:02:19;25.18;50.36
71128;SHT30;59249;59.736;30.568;2022-07-09T11:04:48;25.19;50.63
71128;SHT30;59249;59.736;30.568;2022-07-09T11:07:23;25.30;50.99
71128;SHT30;59249;59.736;30.568;2022-07-09T11:09:52;25.46;50.91
71128;SHT30;59249;59.736;30.568;2022-07-09T11:12:21;25.20;51.23
71128;SHT30;59249;59.736;30.568;2022-07-09T11:14:51;24.89;52.22
71128;SHT30;59249;59.736;30.568;2022-07-09T11:17:20;24.39;55.23
71128;SHT30;59249;59.736;30.568;2022-07-09T11:19:49;23.80;58.55
71128;SHT30;59249;59.736;30.568;2022-07-09T11:22:17;23.64;58.49
71128;SHT30;59249;59.736;30.568;2022-07-09T11:24:47;23.46;59.37
71128;SHT30;59249;59.736;30.568;2022-07-09T11:27:16;23.24;60.55
71128;SHT30;59249;59.736;30.568;2022-07-09T11:29:46;23.17;60.40
71128;SHT30;59249;59.736;30.568;2022-07-09T11:32:16;22.95;61.53
71128;SHT30;59249;59.736;30.568;2022-07-09T11:34:51;22.64;62.05
71128;SHT30;59249;59.736;30.568;2022-07-09T11:37:23;22.72;62.14
71128;SHT30;59249;59.736;30.568;2022-07-09T11:39:54;22.77;62.39
71128;SHT30;59249;59.736;30.568;2022-07-09T11:42:23;22.77;62.65
71128;SHT30;59249;59.736;30.568;2022-07-09T11:44:55;22.78;63.28
71128;SHT30;59249;59.736;30.568;2022-07-09T11:47:35;22.87;63.71
71128;SHT30;59249;59.736;30.568;2022-07-09T11:50:05;22.97;63.55
71128;SHT30;59249;59.736;30.568;2022-07-09T11:52:35;22.96;63.98
71128;SHT30;59249;59.736;30.568;2022-07-09T11:55:11;23.06;64.61
71128;SHT30;59249;59.736;30.568;2022-07-09T11:57:50;23.28;63.74
71128;SHT30;59249;59.736;30.568;2022-07-09T12:00:26;23.38;63.51
71128;SHT30;59249;59.736;30.568;2022-07-09T12:02:56;23.61;62.96
71128;SHT30;59249;59.736;30.568;2022-07-09T12:05:29;24.01;62.33
71128;SHT30;59249;59.736;30.568;2022-07-09T12:07:59;24.34;61.36
71128;SHT30;59249;59.736;30.568;2022-07-09T12:10:31;24.65;60.44
71128;SHT30;59249;59.736;30.568;2022-07-09T12:13:00;25.01;59.28
71128;SHT30;59249;59.736;30.568;2022-07-09T12:15:29;25.06;59.75
71128;SHT30;59249;59.736;30.568;2022-07-09T12:17:58;24.97;58.65
71128;SHT30;59249;59.736;30.568;2022-07-09T12:20:29;24.75;58.00
71128;SHT30;59249;59.736;30.568;2022-07-09T12:22:58;24.92;57.76
71128;SHT30;59249;59.736;30.568;2022-07-09T12:25:27;25.05;57.27
71128;SHT30;59249;59.736;30.568;2022-07-09T12:27:57;25.03;57.14
71128;SHT30;59249;59.736;30.568;2022-07-09T12:30:26;25.00;57.45
71128;SHT30;59249;59.736;30.568;2022-07-09T12:32:56;25.10;57.30
71128;SHT30;59249;59.736;30.568;2022-07-09T12:35:26;24.96;55.70
71128;SHT30;59249;59.736;30.568;2022-07-09T12:37:54;25.13;55.04
71128;SHT30;59249;59.736;30.568;2022-07-09T12:40:24;25.17;54.35
71128;SHT30;59249;59.736;30.568;2022-07-09T12:42:52;25.05;54.28
71128;SHT30;59249;59.736;30.568;2022-07-09T12:45:22;25.06;54.19
71128;SHT30;59249;59.736;30.568;2022-07-09T12:47:51;25.22;54.19
71128;SHT30;59249;59.736;30.568;2022-07-09T12:50:19;25.30;53.78
71128;SHT30;59249;59.736;30.568;2022-07-09T12:52:48;25.34;53.59
71128;SHT30;59249;59.736;30.568;2022-07-09T12:55:17;25.22;54.03
71128;SHT30;59249;59.736;30.568;2022-07-09T12:57:46;25.56;53.52
71128;SHT30;59249;59.736;30.568;2022-07-09T13:00:15;25.30;53.34
71128;SHT30;59249;59.736;30.568;2022-07-09T13:02:45;24.91;53.53
71128;SHT30;59249;59.736;30.568;2022-07-09T13:05:14;24.97;53.55
71128;SHT30;59249;59.736;30.568;2022-07-09T13:07:44;25.35;53.17
71128;SHT30;59249;59.736;30.568;2022-07-09T13:10:12;25.32;53.69
71128;SHT30;59249;59.736;30.568;2022-07-09T13:12:41;25.24;53.31
71128;SHT30;59249;59.736;30.568;2022-07-09T13:15:10;25.22;53.51
71128;SHT30;59249;59.736;30.568;2022-07-09T13:17:39;25.09;53.95
71128;SHT30;59249;59.736;30.568;2022-07-09T13:20:10;25.11;53.91
71128;SHT30;59249;59.736;30.568;2022-07-09T13:22:38;25.67;53.27
71128;SHT30;59249;59.736;30.568;2022-07-09T13:25:07;26.03;52.08
71128;SHT30;59249;59.736;30.568;2022-07-09T13:27:36;26.20;51.41
71128;SHT30;59249;59.736;30.568;2022-07-09T13:30:05;26.09;51.51
71128;SHT30;59249;59.736;30.568;2022-07-09T13:32:33;25.88;52.34
71128;SHT30;59249;59.736;30.568;2022-07-09T13:35:03;25.68;53.61
71128;SHT30;59249;59.736;30.568;2022-07-09T13:37:33;25.34;54.95
71128;SHT30;59249;59.736;30.568;2022-07-09T13:40:01;25.20;55.69
71128;SHT30;59249;59.736;30.568;2022-07-09T13:42:30;25.20;55.74
71128;SHT30;59249;59.736;30.568;2022-07-09T13:44:58;25.07;56.05
71128;SHT30;59249;59.736;30.568;2022-07-09T13:47:29;25.03;56.28
71128;SHT30;59249;59.736;30.568;2022-07-09T13:49:57;24.95;56.11
71128;SHT30;59249;59.736;30.568;2022-07-09T13:52:26;24.87;56.55
71128;SHT30;59249;59.736;30.568;2022-07-09T13:54:56;24.81;56.46
71128;SHT30;59249;59.736;30.568;2022-07-09T13:57:25;24.76;56.48
71128;SHT30;59249;59.736;30.568;2022-07-09T13:59:53;24.50;57.51
71128;SHT30;59249;59.736;30.568;2022-07-09T14:02:22;24.43;57.47
71128;SHT30;59249;59.736;30.568;2022-07-09T14:04:50;24.30;57.65
71128;SHT30;59249;59.736;30.568;2022-07-09T14:07:19;24.32;57.74
71128;SHT30;59249;59.736;30.568;2022-07-09T14:09:49;24.23;58.26
71128;SHT30;59249;59.736;30.568;2022-07-09T14:12:19;24.09;57.76
71128;SHT30;59249;59.736;30.568;2022-07-09T14:14:49;23.96;57.35
71128;SHT30;59249;59.736;30.568;2022-07-09T14:17:17;23.89;55.95
71128;SHT30;59249;59.736;30.568;2022-07-09T14:19:46;23.84;55.74
71128;SHT30;59249;59.736;30.568;2022-07-09T14:22:15;23.75;54.91
71128;SHT30;59249;59.736;30.568;2022-07-09T14:24:43;23.73;55.22
71128;SHT30;59249;59.736;30.568;2022-07-09T14:27:12;23.70;55.21
71128;SHT30;59249;59.736;30.568;2022-07-09T14:29:45;23.63;55.18
71128;SHT30;59249;59.736;30.568;2022-07-09T14:32:14;23.55;55.19
71128;SHT30;59249;59.736;30.568;2022-07-09T14:34:42;23.50;55.40
71128;SHT30;59249;59.736;30.568;2022-07-09T14:37:11;23.41;56.11
71128;SHT30;59249;59.736;30.568;2022-07-09T14:39:40;23.01;57.55
71128;SHT30;59249;59.736;30.568;2022-07-09T14:42:12;22.50;57.66
71128;SHT30;59249;59.736;30.568;2022-07-09T14:44:40;22.17;59.19
71128;SHT30;59249;59.736;30.568;2022-07-09T14:47:10;21.70;62.03
71128;SHT30;59249;59.736;30.568;2022-07-09T14:49:46;21.19;63.93
71128;SHT30;59249;59.736;30.568;2022-07-09T14:52:15;21.12;64.84
71128;SHT30;59249;59.736;30.568;2022-07-09T14:54:44;20.83;65.96
71128;SHT30;59249;59.736;30.568;2022-07-09T14:57:13;20.65;66.81
71128;SHT30;59249;59.736;30.568;2022-07-09T14:59:42;20.65;66.74
71128;SHT30;59249;59.736;30.568;2022-07-09T15:02:12;20.61;65.30
71128;SHT30;59249;59.736;30.568;2022-07-09T15:04:40;20.65;65.24
71128;SHT30;59249;59.736;30.568;2022-07-09T15:07:09;20.73;64.80
71128;SHT30;59249;59.736;30.568;2022-07-09T15:09:39;20.88;64.15
71128;SHT30;59249;59.736;30.568;2022-07-09T15:12:08;21.05;63.81
71128;SHT30;59249;59.736;30.568;2022-07-09T15:14:36;21.22;63.65
71128;SHT30;59249;59.736;30.568;2022-07-09T15:17:05;21.45;63.31
71128;SHT30;59249;59.736;30.568;2022-07-09T15:19:35;21.63;63.05
71128;SHT30;59249;59.736;30.568;2022-07-09T15:22:04;21.82;62.98
71128;SHT30;59249;59.736;30.568;2022-07-09T15:24:42;21.90;62.61
71128;SHT30;59249;59.736;30.568;2022-07-09T15:27:10;22.10;62.40
71128;SHT30;59249;59.736;30.568;2022-07-09T15:29:39;22.29;62.22